createdAt,value
2023-02-28T00:01:14.214Z,3.70
2023-02-28T00:04:02.073Z,4.97
2023-02-28T00:06:50.164Z,5.38
2023-02-28T00:09:38.144Z,4.93
2023-02-28T00:12:28.378Z,5.28
2023-02-28T00:15:17.050Z,4.32
2023-02-28T00:18:05.765Z,4.18
2023-02-28T00:20:55.846Z,5.35
2023-02-28T00:23:43.739Z,4.97
2023-02-28T00:26:31.934Z,4.90
2023-02-28T00:29:21.129Z,5.70
2023-02-28T00:32:09.266Z,4.38
2023-02-28T00:34:57.546Z,5.10
2023-02-28T00:37:45.521Z,4.75
2023-02-28T00:40:33.829Z,5.63
2023-02-28T00:43:21.658Z,5.18
2023-02-28T00:46:10.986Z,7.20
2023-02-28T00:48:58.966Z,4.75
2023-02-28T00:51:46.564Z,5.22
2023-02-28T00:54:34.688Z,4.40
2023-02-28T00:57:22.849Z,4.25
2023-02-28T01:00:12.613Z,3.65
2023-02-28T01:03:01.751Z,3.50
2023-02-28T01:05:50.088Z,4.97
2023-02-28T01:08:38.072Z,4.20
2023-02-28T01:11:26.287Z,4.05
2023-02-28T01:14:15.352Z,4.07
2023-02-28T01:17:03.240Z,4.88
2023-02-28T01:19:54.799Z,4.97
2023-02-28T01:22:42.579Z,4.53
2023-02-28T01:25:30.707Z,6.65
2023-02-28T01:28:19.100Z,4.68
2023-02-28T01:31:07.505Z,3.65
2023-02-28T01:33:55.511Z,4.25
2023-02-28T01:36:45.011Z,5.70
2023-02-28T01:39:32.898Z,5.32
2023-02-28T01:42:20.872Z,3.75
2023-02-28T01:45:24.291Z,5.15
2023-02-28T01:48:13.527Z,4.95
2023-02-28T01:51:06.734Z,4.10
2023-02-28T01:54:02.328Z,4.82
2023-02-28T01:56:55.812Z,6.28
2023-02-28T02:02:35.219Z,6.05
2023-02-28T02:05:24.669Z,5.70
2023-02-28T02:08:15.677Z,4.45
2023-02-28T02:11:05.602Z,6.32
2023-02-28T02:14:15.445Z,5.22
2023-02-28T02:17:17.377Z,5.25
2023-02-28T02:20:53.356Z,3.75
2023-02-28T02:24:16.445Z,4.03
2023-02-28T02:27:25.740Z,5.85
2023-02-28T02:30:42.759Z,4.35
2023-02-28T02:34:07.500Z,4.97
2023-02-28T02:37:06.248Z,5.32
2023-02-28T02:40:00.352Z,8.07
2023-02-28T02:42:56.173Z,5.45
2023-02-28T02:45:49.966Z,4.82
2023-02-28T02:48:43.615Z,5.60
2023-02-28T02:51:34.810Z,5.10
2023-02-28T02:54:29.809Z,5.30
2023-02-28T02:57:23.810Z,5.30
2023-02-28T03:00:13.593Z,6.03
2023-02-28T03:03:03.370Z,6.40
2023-02-28T03:05:52.742Z,5.68
2023-02-28T03:08:41.079Z,4.45
2023-02-28T03:11:31.708Z,7.05
2023-02-28T03:14:34.511Z,6.20
2023-02-28T03:17:45.794Z,5.90
2023-02-28T03:20:42.980Z,4.97
2023-02-28T03:23:40.441Z,5.78
2023-02-28T03:26:31.492Z,8.15
2023-02-28T03:29:25.682Z,4.75
2023-02-28T03:32:22.649Z,4.80
2023-02-28T03:35:22.853Z,6.50
2023-02-28T03:38:16.022Z,5.75
2023-02-28T03:41:12.306Z,4.95
2023-02-28T03:44:07.888Z,8.68
2023-02-28T03:47:00.767Z,5.88
2023-02-28T03:49:55.212Z,6.47
2023-02-28T03:52:49.056Z,7.40
2023-02-28T03:55:42.627Z,9.02
2023-02-28T03:58:35.435Z,4.65
2023-02-28T04:01:29.849Z,6.43
2023-02-28T04:04:19.219Z,5.38
2023-02-28T04:07:10.696Z,6.75
2023-02-28T04:09:58.836Z,6.10
2023-02-28T04:12:46.891Z,7.55
2023-02-28T04:15:34.906Z,5.68
2023-02-28T04:18:24.094Z,7.20
2023-02-28T04:21:12.701Z,5.45
2023-02-28T04:24:01.634Z,6.97
2023-02-28T04:26:51.321Z,6.30
2023-02-28T04:29:39.365Z,5.70
2023-02-28T04:32:27.165Z,7.28
2023-02-28T04:35:16.690Z,5.97
2023-02-28T04:38:04.676Z,8.52
2023-02-28T04:40:52.681Z,7.53
2023-02-28T04:43:40.941Z,6.63
2023-02-28T04:46:28.882Z,9.52
2023-02-28T04:49:16.491Z,11.25
2023-02-28T04:52:08.581Z,5.00
2023-02-28T04:54:56.446Z,8.15
2023-02-28T04:57:44.700Z,10.60
2023-02-28T05:00:32.745Z,5.90
2023-02-28T05:03:21.743Z,8.07
2023-02-28T05:06:10.143Z,7.68
2023-02-28T05:08:59.895Z,7.38
2023-02-28T05:11:47.976Z,6.15
2023-02-28T05:14:36.000Z,6.97
2023-02-28T05:17:23.871Z,7.30
2023-02-28T05:20:15.632Z,10.07
2023-02-28T05:23:04.518Z,9.30
2023-02-28T05:25:53.916Z,6.05
2023-02-28T05:28:42.097Z,6.45
2023-02-28T05:31:30.361Z,6.88
2023-02-28T05:34:18.473Z,8.25
2023-02-28T05:37:06.307Z,7.65
2023-02-28T05:39:53.872Z,5.90
2023-02-28T05:42:43.715Z,7.18
2023-02-28T05:45:31.418Z,6.30
2023-02-28T05:48:19.484Z,6.20
2023-02-28T05:51:08.172Z,8.85
2023-02-28T05:53:56.058Z,5.88
2023-02-28T05:56:45.102Z,7.93
2023-02-28T05:59:34.384Z,6.78
2023-02-28T06:02:22.122Z,10.95
2023-02-28T06:05:15.596Z,7.85
2023-02-28T06:08:03.584Z,7.72
2023-02-28T06:10:51.507Z,11.52
2023-02-28T06:13:39.769Z,9.02
2023-02-28T06:16:29.666Z,8.32
2023-02-28T06:19:17.673Z,10.13
2023-02-28T06:22:05.796Z,9.57
2023-02-28T06:24:53.805Z,7.50
2023-02-28T06:27:41.874Z,8.88
2023-02-28T06:30:32.108Z,11.40
2023-02-28T06:33:21.234Z,8.68
2023-02-28T06:36:10.791Z,8.88
2023-02-28T06:38:59.322Z,8.00
2023-02-28T06:41:55.208Z,13.70
2023-02-28T06:44:44.304Z,9.30
2023-02-28T06:47:33.722Z,9.45
2023-02-28T06:50:23.263Z,11.88
2023-02-28T06:53:11.256Z,11.00
2023-02-28T06:56:01.153Z,9.15
2023-02-28T06:58:50.378Z,11.15
2023-02-28T07:01:38.578Z,11.20
2023-02-28T07:04:26.578Z,8.77
2023-02-28T07:07:15.938Z,11.73
2023-02-28T07:10:03.829Z,13.75
2023-02-28T07:12:52.445Z,14.85
2023-02-28T07:15:43.670Z,9.60
2023-02-28T07:18:32.682Z,9.80
2023-02-28T07:21:20.420Z,9.63
2023-02-28T07:24:10.083Z,11.00
2023-02-28T07:27:00.241Z,14.40
2023-02-28T07:29:48.720Z,10.40
2023-02-28T07:32:39.638Z,10.10
2023-02-28T07:35:27.715Z,10.82
2023-02-28T07:38:15.486Z,10.73
2023-02-28T07:41:06.140Z,10.80
2023-02-28T07:43:56.872Z,9.38
2023-02-28T07:46:44.911Z,10.98
2023-02-28T07:49:33.082Z,9.45
2023-02-28T07:52:21.102Z,14.05
2023-02-28T07:55:10.557Z,10.05
2023-02-28T07:57:59.969Z,10.55
2023-02-28T08:00:48.089Z,11.82
2023-02-28T08:03:36.339Z,11.48
2023-02-28T08:06:25.882Z,13.43
2023-02-28T08:09:15.667Z,12.13
2023-02-28T08:12:03.803Z,9.32
2023-02-28T08:14:52.985Z,10.52
2023-02-28T08:17:41.106Z,10.23
2023-02-28T08:20:29.201Z,12.63
2023-02-28T08:23:17.180Z,12.25
2023-02-28T08:26:05.992Z,10.77
2023-02-28T08:28:55.234Z,10.18
2023-02-28T08:31:46.035Z,12.75
2023-02-28T08:34:34.217Z,13.60
2023-02-28T08:37:21.994Z,10.57
2023-02-28T08:40:11.174Z,11.55
2023-02-28T08:42:59.151Z,9.23
2023-02-28T08:45:48.358Z,14.38
2023-02-28T08:48:39.616Z,11.95
2023-02-28T08:51:28.505Z,13.52
2023-02-28T08:54:20.224Z,14.85
2023-02-28T08:57:10.247Z,12.07
2023-02-28T08:59:58.393Z,11.90
2023-02-28T09:02:46.599Z,12.48
2023-02-28T09:05:35.647Z,10.50
2023-02-28T09:08:24.046Z,10.60
2023-02-28T09:11:13.190Z,10.88
2023-02-28T09:14:05.531Z,11.18
2023-02-28T09:16:53.809Z,14.30
2023-02-28T09:19:41.662Z,9.98
2023-02-28T09:22:31.058Z,10.10
2023-02-28T09:25:18.842Z,11.77
2023-02-28T09:28:07.180Z,14.25
2023-02-28T09:30:58.264Z,12.75
2023-02-28T09:33:46.458Z,10.60
2023-02-28T09:36:44.803Z,12.80
2023-02-28T09:39:34.918Z,10.15
2023-02-28T09:42:28.021Z,11.02
2023-02-28T09:48:16.415Z,10.82
2023-02-28T09:51:07.723Z,9.20
2023-02-28T09:54:01.299Z,12.77
2023-02-28T09:56:55.459Z,12.80
2023-02-28T09:59:54.103Z,8.70
2023-02-28T10:02:53.320Z,12.18
2023-02-28T10:05:44.512Z,11.63
2023-02-28T10:08:43.752Z,13.55
2023-02-28T10:11:35.352Z,10.18
2023-02-28T10:14:27.331Z,12.18
2023-02-28T10:17:18.532Z,7.68
2023-02-28T10:20:14.627Z,10.02
2023-02-28T10:23:11.022Z,9.60
2023-02-28T10:26:02.756Z,10.95
2023-02-28T10:28:50.640Z,10.98
2023-02-28T10:31:41.717Z,11.18
2023-02-28T10:34:29.702Z,9.57
2023-02-28T10:37:17.762Z,8.00
2023-02-28T10:40:09.601Z,8.82
2023-02-28T10:43:01.535Z,10.80
2023-02-28T10:46:01.946Z,9.55
2023-02-28T10:49:04.032Z,7.38
2023-02-28T10:51:54.762Z,8.60
2023-02-28T10:54:42.745Z,13.18
2023-02-28T10:57:33.505Z,8.93
2023-02-28T11:00:23.982Z,7.55
2023-02-28T11:03:27.305Z,7.82
2023-02-28T11:06:23.092Z,7.15
2023-02-28T11:09:22.702Z,11.75
2023-02-28T11:12:23.897Z,9.27
2023-02-28T11:15:27.069Z,7.07
2023-02-28T11:18:27.227Z,7.85
2023-02-28T11:21:26.978Z,10.52
2023-02-28T11:24:25.268Z,10.90
2023-02-28T11:27:28.987Z,6.40
2023-02-28T11:30:32.349Z,8.90
2023-02-28T11:33:30.626Z,9.35
2023-02-28T11:36:21.540Z,6.43
2023-02-28T11:39:14.553Z,8.05
2023-02-28T11:45:24.994Z,7.47
2023-02-28T11:48:20.846Z,6.50
2023-02-28T11:51:21.758Z,7.97
2023-02-28T11:54:37.561Z,7.22
2023-02-28T11:57:42.012Z,7.57
2023-02-28T12:00:42.595Z,9.13
2023-02-28T12:03:40.322Z,9.05
2023-02-28T12:06:35.270Z,8.70
2023-02-28T12:09:43.436Z,6.45
2023-02-28T12:12:44.411Z,6.03
2023-02-28T12:16:00.862Z,7.97
2023-02-28T12:19:04.362Z,8.77
2023-02-28T12:22:14.010Z,6.38
2023-02-28T12:25:31.343Z,8.50
2023-02-28T12:28:25.666Z,5.40
2023-02-28T12:31:20.265Z,7.55
2023-02-28T12:34:13.377Z,8.15
2023-02-28T12:37:08.355Z,7.10
2023-02-28T12:40:04.446Z,6.22
2023-02-28T12:42:57.361Z,10.05
2023-02-28T12:45:50.307Z,9.77
2023-02-28T12:52:27.203Z,9.07
2023-02-28T12:55:24.855Z,5.22
2023-02-28T12:58:22.630Z,7.88
2023-02-28T13:01:44.701Z,7.28
2023-02-28T13:04:55.161Z,6.72
2023-02-28T13:08:06.236Z,9.77
2023-02-28T13:10:56.171Z,6.57
2023-02-28T13:13:47.920Z,7.65
2023-02-28T13:16:58.774Z,7.50
2023-02-28T13:19:58.524Z,8.18
2023-02-28T13:22:48.185Z,8.27
2023-02-28T13:25:58.669Z,7.82
2023-02-28T13:29:28.462Z,8.13
2023-02-28T13:32:37.708Z,8.05
2023-02-28T13:35:46.125Z,8.65
2023-02-28T13:38:41.764Z,10.05
2023-02-28T13:41:49.826Z,9.07
2023-02-28T13:45:22.421Z,7.30
2023-02-28T13:48:32.115Z,9.50
2023-02-28T13:51:41.860Z,8.02
2023-02-28T13:54:41.796Z,7.68
2023-02-28T13:57:43.174Z,9.32
2023-02-28T14:00:53.985Z,9.00
2023-02-28T14:04:04.314Z,6.45
2023-02-28T14:06:54.451Z,6.47
2023-02-28T14:09:47.985Z,8.18
2023-02-28T14:12:57.223Z,8.27
2023-02-28T14:15:59.327Z,6.75
2023-02-28T14:18:58.240Z,10.02
2023-02-28T14:22:07.109Z,6.32
2023-02-28T14:25:13.194Z,9.20
2023-02-28T14:28:12.230Z,8.90
2023-02-28T14:31:09.319Z,9.63
2023-02-28T14:34:24.387Z,8.35
2023-02-28T14:37:18.377Z,8.88
2023-02-28T14:40:14.126Z,10.18
2023-02-28T14:43:03.834Z,7.53
2023-02-28T14:45:55.305Z,7.82
2023-02-28T14:48:46.683Z,10.63
2023-02-28T14:51:36.947Z,9.95
2023-02-28T14:54:25.939Z,8.93
2023-02-28T14:57:25.726Z,11.48
2023-02-28T15:00:19.002Z,9.18
2023-02-28T15:03:21.249Z,9.88
2023-02-28T15:06:16.619Z,11.80
2023-02-28T15:09:16.013Z,11.10
2023-02-28T15:12:03.777Z,10.60
2023-02-28T15:14:53.648Z,9.88
2023-02-28T15:17:42.401Z,9.13
2023-02-28T15:20:30.691Z,11.35
2023-02-28T15:23:20.698Z,12.23
2023-02-28T15:26:13.051Z,10.50
2023-02-28T15:29:04.127Z,11.05
2023-02-28T15:31:58.309Z,10.13
2023-02-28T15:34:47.329Z,12.32
2023-02-28T15:37:48.884Z,10.32
2023-02-28T15:40:40.089Z,10.15
2023-02-28T15:43:30.905Z,10.48
2023-02-28T15:46:21.450Z,10.98
2023-02-28T15:49:21.604Z,8.30
2023-02-28T15:52:17.769Z,9.50
2023-02-28T15:55:13.755Z,9.63
2023-02-28T15:58:04.429Z,8.27
2023-02-28T16:01:10.397Z,8.80
2023-02-28T16:03:59.541Z,9.15
2023-02-28T16:06:49.431Z,8.60
2023-02-28T16:09:39.045Z,8.82
2023-02-28T16:12:29.919Z,8.25
2023-02-28T16:15:22.648Z,9.32
2023-02-28T16:18:14.197Z,8.35
2023-02-28T16:21:02.078Z,9.45
2023-02-28T16:23:50.070Z,8.25
2023-02-28T16:26:40.208Z,6.60
2023-02-28T16:29:31.973Z,9.93
2023-02-28T16:32:19.992Z,13.03
2023-02-28T16:35:14.951Z,11.20
2023-02-28T16:38:03.005Z,8.82
2023-02-28T16:40:53.350Z,9.90
2023-02-28T16:43:41.361Z,10.43
2023-02-28T16:46:33.530Z,11.05
2023-02-28T16:49:21.940Z,9.05
2023-02-28T16:52:11.210Z,11.80
2023-02-28T16:55:01.058Z,10.88
2023-02-28T16:57:52.726Z,9.52
2023-02-28T17:00:40.679Z,9.65
2023-02-28T17:03:33.978Z,11.40
2023-02-28T17:06:24.382Z,13.45
2023-02-28T17:09:18.530Z,10.32
2023-02-28T17:12:07.312Z,10.25
2023-02-28T17:14:55.426Z,11.18
2023-02-28T17:17:44.764Z,10.52
2023-02-28T17:20:32.988Z,9.75
2023-02-28T17:23:20.723Z,9.38
2023-02-28T17:26:18.585Z,9.93
2023-02-28T17:29:15.207Z,10.43
2023-02-28T17:32:16.035Z,14.07
2023-02-28T17:35:05.585Z,10.07
2023-02-28T17:37:53.406Z,12.88
2023-02-28T17:40:41.727Z,13.05
2023-02-28T17:43:30.789Z,12.57
2023-02-28T17:46:21.727Z,12.82
2023-02-28T17:49:10.732Z,16.45
2023-02-28T17:51:58.905Z,14.98
2023-02-28T17:54:46.686Z,24.98
2023-02-28T17:57:34.675Z,19.20
2023-02-28T18:00:25.922Z,21.48
2023-02-28T18:03:14.291Z,20.63
2023-02-28T18:06:02.691Z,69.05
2023-02-28T18:08:52.424Z,27.33
2023-02-28T18:11:44.822Z,25.90
2023-02-28T18:14:32.774Z,25.65
2023-02-28T18:17:22.125Z,26.80
2023-02-28T18:20:11.418Z,23.65
2023-02-28T18:22:59.073Z,22.42
2023-02-28T18:25:47.204Z,23.38
2023-02-28T18:28:35.029Z,22.15
2023-02-28T18:31:23.036Z,24.83
2023-02-28T18:34:12.343Z,21.10
2023-02-28T18:37:00.378Z,20.75
2023-02-28T18:39:48.892Z,16.70
2023-02-28T18:42:36.515Z,21.30
2023-02-28T18:45:24.526Z,18.48
2023-02-28T18:48:13.381Z,22.00
2023-02-28T18:51:07.997Z,16.77
2023-02-28T18:53:56.110Z,18.63
2023-02-28T18:56:44.740Z,17.33
2023-02-28T18:59:32.731Z,17.40
2023-02-28T19:02:20.756Z,16.15
2023-02-28T19:05:11.577Z,16.52
2023-02-28T19:08:01.339Z,18.50
2023-02-28T19:10:49.383Z,13.35
2023-02-28T19:13:37.611Z,15.20
2023-02-28T19:16:27.630Z,16.63
2023-02-28T19:19:15.826Z,13.55
2023-02-28T19:22:03.657Z,13.13
2023-02-28T19:24:53.638Z,13.75
2023-02-28T19:27:41.702Z,15.00
2023-02-28T19:30:30.018Z,13.95
2023-02-28T19:33:18.039Z,16.10
2023-02-28T19:36:06.505Z,16.90
2023-02-28T19:38:54.119Z,16.92
2023-02-28T19:41:43.562Z,13.65
2023-02-28T19:44:31.327Z,17.90
2023-02-28T19:47:19.630Z,15.75
2023-02-28T19:50:08.440Z,14.35
2023-02-28T19:52:58.019Z,15.85
2023-02-28T19:55:49.263Z,15.43
2023-02-28T19:58:39.343Z,16.65
2023-02-28T20:01:27.319Z,14.65
2023-02-28T20:04:15.340Z,19.73
2023-02-28T20:07:03.013Z,15.68
2023-02-28T20:09:51.287Z,20.33
2023-02-28T20:12:39.258Z,17.92
2023-02-28T20:15:29.013Z,17.20
2023-02-28T20:18:17.027Z,16.92
2023-02-28T20:21:05.485Z,15.88
2023-02-28T20:23:53.777Z,17.42
2023-02-28T20:26:42.162Z,15.25
2023-02-28T20:29:30.299Z,17.10
2023-02-28T20:32:20.234Z,17.42
2023-02-28T20:35:11.537Z,19.67
2023-02-28T20:37:59.687Z,18.35
2023-02-28T20:40:47.790Z,24.95
2023-02-28T20:43:36.690Z,19.88
2023-02-28T20:46:24.612Z,17.52
2023-02-28T20:49:15.122Z,20.15
2023-02-28T20:52:03.104Z,19.25
2023-02-28T20:54:51.502Z,20.30
2023-02-28T20:57:40.168Z,17.17
2023-02-28T21:00:28.273Z,18.65
2023-02-28T21:03:16.409Z,17.73
2023-02-28T21:06:06.037Z,19.15
2023-02-28T21:08:54.328Z,30.27
2023-02-28T21:11:42.946Z,20.00
2023-02-28T21:14:32.168Z,21.23
2023-02-28T21:17:20.022Z,20.10
2023-02-28T21:20:08.778Z,19.33
2023-02-28T21:22:58.017Z,20.33
2023-02-28T21:25:45.977Z,16.80
2023-02-28T21:28:34.535Z,19.60
2023-02-28T21:31:24.271Z,17.50
2023-02-28T21:34:13.722Z,17.63
2023-02-28T21:37:01.612Z,19.33
2023-02-28T21:39:51.523Z,16.95
2023-02-28T21:42:39.113Z,20.23
2023-02-28T21:45:27.153Z,19.75
2023-02-28T21:48:14.893Z,20.50
2023-02-28T21:51:05.070Z,19.45
2023-02-28T21:53:53.395Z,17.83
2023-02-28T21:56:42.794Z,16.83
2023-02-28T21:59:30.844Z,23.35
2023-02-28T22:02:18.734Z,19.85
2023-02-28T22:05:07.312Z,15.77
2023-02-28T22:07:55.347Z,23.35
2023-02-28T22:10:43.206Z,20.00
2023-02-28T22:13:32.629Z,17.60
2023-02-28T22:16:21.773Z,18.40
2023-02-28T22:19:09.850Z,19.52
2023-02-28T22:21:57.741Z,17.70
2023-02-28T22:24:45.631Z,16.63
2023-02-28T22:27:34.634Z,17.58
2023-02-28T22:30:24.071Z,17.73
2023-02-28T22:33:11.854Z,16.83
2023-02-28T22:36:07.608Z,17.77
2023-02-28T22:38:55.841Z,15.70
2023-02-28T22:41:43.730Z,17.02
2023-02-28T22:44:31.689Z,16.13
2023-02-28T22:47:22.301Z,16.55
2023-02-28T22:50:11.758Z,16.75
2023-02-28T22:52:59.445Z,20.45
2023-02-28T22:55:54.933Z,20.27
2023-02-28T22:58:44.933Z,19.98
2023-02-28T23:01:35.654Z,16.20
2023-02-28T23:04:26.894Z,16.85
2023-02-28T23:07:16.097Z,17.88
2023-02-28T23:10:06.488Z,20.20
2023-02-28T23:12:54.413Z,19.23
2023-02-28T23:15:42.666Z,19.80
2023-02-28T23:18:30.321Z,16.48
2023-02-28T23:21:19.692Z,19.52
2023-02-28T23:24:10.426Z,16.73
2023-02-28T23:26:59.506Z,17.83
2023-02-28T23:29:47.551Z,17.23
2023-02-28T23:32:35.381Z,19.25
2023-02-28T23:35:23.254Z,17.25
2023-02-28T23:38:12.670Z,20.38
2023-02-28T23:41:00.687Z,18.50
2023-02-28T23:43:48.795Z,15.30
2023-02-28T23:46:37.424Z,17.65
2023-02-28T23:49:25.737Z,11.77
2023-02-28T23:52:13.682Z,17.88
2023-02-28T23:55:02.835Z,15.38
2023-02-28T23:57:50.495Z,15.52
